Time;durP1;ratioP1;P1;durP2;ratioP2;P2;SDS_P1;SDS_P2;PMS_P1;PMS_P2;Temp;Humidity;BMP_temperature;BMP_pressure;BME280_temperature;BME280_humidity;BME280_pressure;Samples;Min_cycle;Max_cycle;Signal;HPM_P1;HPM_P2
2022/01/18 00:00:06;;;;;;;;;;;;;;;26.68;23.43;98910.41;171235;28;959;-52
2022/01/18 00:00:18;;;;;;;;;;;;;;;26.69;23.09;98908.59;171316;28;1062;-52
2022/01/18 00:00:23;;;;;;;;;;;;;;;26.68;23.39;98914.84;171699;28;901;-50
2022/01/18 00:00:29;;;;;;;;;;;;;;;26.66;23.43;98909.66;171766;28;1170;-51
2022/01/18 00:00:35;;;;;;;;;;;;;;;26.66;23.21;98911.44;171752;28;1209;-51
2022/01/18 00:00:41;;;;;;;;;;;;;;;26.70;23.42;98907.66;171761;28;1269;-51
2022/01/18 00:00:46;;;;;;;;;;;;;;;26.70;23.13;98912.94;172283;28;817;-51
2022/01/18 00:00:52;;;;;;;;;;;;;;;26.69;23.46;98911.25;172306;28;1176;-52
2022/01/18 00:00:57;;;;;;;;;;;;;;;26.68;23.46;98910.41;172312;28;1201;-51
2022/01/18 00:01:02;;;;;;;;;;;;;;;26.69;23.46;98911.25;171948;28;876;-51
2022/01/18 00:01:07;;;;;;;;;;;;;;;26.68;23.38;98910.41;172041;28;1047;-52
2022/01/18 00:01:13;;;;;;;;;;;;;;;26.68;23.52;98914.84;171642;28;1307;-51
2022/01/18 00:01:18;;;;;;;;;;;;;;;26.68;23.26;98912.19;171694;28;1059;-52
2022/01/18 00:01:23;;;;;;;;;;;;;;;26.67;23.47;98913.16;171477;28;4140;-53
2022/01/18 00:01:29;;;;;;;;;;;;;;;26.66;23.22;98911.44;171703;28;1157;-51
2022/01/18 00:01:34;;;;;;;;;;;;;;;26.68;23.49;98913.03;171696;28;1259;-52
2022/01/18 00:01:39;;;;;;;;;;;;;;;26.70;23.47;98911.19;171812;28;1279;-52
2022/01/18 00:01:44;;;;;;;;;;;;;;;26.71;23.39;98907.59;171860;28;862;-51
2022/01/18 00:01:50;;;;;;;;;;;;;;;26.74;23.30;98910.97;171636;28;1043;-51
2022/01/18 00:01:55;;;;;;;;;;;;;;;26.73;23.23;98907.47;171664;28;1492;-51
2022/01/18 00:02:01;;;;;;;;;;;;;;;26.73;23.41;98912.78;171371;28;1066;-51
2022/01/18 00:02:06;;;;;;;;;;;;;;;26.72;23.44;98913.72;171756;28;1144;-53
2022/01/18 00:02:11;;;;;;;;;;;;;;;26.70;23.33;98918.25;171878;28;1315;-52
2022/01/18 00:02:16;;;;;;;;;;;;;;;26.72;23.30;98913.72;171909;28;960;-52
2022/01/18 00:02:21;;;;;;;;;;;;;;;26.72;23.38;98911.09;171741;28;893;-52
2022/01/18 00:02:27;;;;;;;;;;;;;;;26.74;22.96;98914.47;171937;28;1030;-51
2022/01/18 00:02:32;;;;;;;;;;;;;;;26.74;23.43;98909.19;172130;28;1216;-51
2022/01/18 00:02:39;;;;;;;;;;;;;;;26.76;23.11;98907.28;171856;28;1177;-51
2022/01/18 00:02:44;;;;;;;;;;;;;;;26.74;23.39;98910.97;171907;28;822;-52
2022/01/18 00:02:49;;;;;;;;;;;;;;;26.73;23.16;98911.94;171684;28;747;-51
2022/01/18 00:02:55;;;;;;;;;;;;;;;26.73;23.10;98912.78;171796;28;984;-52
2022/01/18 00:03:00;;;;;;;;;;;;;;;26.70;23.18;98905.00;171323;28;1256;-51
2022/01/18 00:03:06;;;;;;;;;;;;;;;26.68;23.31;98907.75;172227;28;1039;-51
2022/01/18 00:03:11;;;;;;;;;;;;;;;26.67;23.20;98913.16;171896;28;1211;-51
2022/01/18 00:03:16;;;;;;;;;;;;;;;26.69;23.32;98906.81;171583;28;1126;-51
2022/01/18 00:03:22;;;;;;;;;;;;;;;26.70;23.39;98910.31;172519;28;868;-52
2022/01/18 00:03:27;;;;;;;;;;;;;;;26.71;23.14;98910.22;172470;28;1208;-52
2022/01/18 00:03:32;;;;;;;;;;;;;;;26.73;23.29;98912.78;172158;28;1261;-52
2022/01/18 00:03:37;;;;;;;;;;;;;;;26.73;23.20;98909.28;172414;28;1160;-52
2022/01/18 00:03:42;;;;;;;;;;;;;;;26.73;23.18;98904.84;172395;28;837;-52
2022/01/18 00:03:48;;;;;;;;;;;;;;;26.72;23.10;98911.09;172091;28;1606;-52
2022/01/18 00:03:53;;;;;;;;;;;;;;;26.73;23.24;98906.63;172394;28;959;-52
2022/01/18 00:03:58;;;;;;;;;;;;;;;26.73;23.36;98910.13;171692;28;1339;-52
2022/01/18 00:04:04;;;;;;;;;;;;;;;26.73;23.39;98910.13;171355;28;887;-53
2022/01/18 00:04:10;;;;;;;;;;;;;;;26.74;23.10;98903.03;171859;28;833;-53
2022/01/18 00:04:15;;;;;;;;;;;;;;;26.73;23.44;98907.47;171689;28;1181;-51
2022/01/18 00:04:20;;;;;;;;;;;;;;;26.72;23.18;98908.44;171477;28;1228;-51
2022/01/18 00:04:27;;;;;;;;;;;;;;;26.75;23.06;98910.03;171816;28;1179;-51
2022/01/18 00:04:34;;;;;;;;;;;;;;;26.73;23.42;98906.63;171390;28;1011;-52
2022/01/18 00:04:40;;;;;;;;;;;;;;;26.66;23.13;98901.72;171803;28;1197;-51
2022/01/18 00:04:45;;;;;;;;;;;;;;;26.70;23.46;98907.66;171840;28;897;-51
2022/01/18 00:04:50;;;;;;;;;;;;;;;26.70;23.20;98902.38;171738;28;1141;-51
2022/01/18 00:04:55;;;;;;;;;;;;;;;26.70;23.39;98902.38;171291;28;1410;-51
2022/01/18 00:05:00;;;;;;;;;;;;;;;26.71;23.48;98904.09;170031;28;1825;-51
2022/01/18 00:05:06;;;;;;;;;;;;;;;26.71;23.42;98907.59;171394;28;1598;-51
2022/01/18 00:05:14;;;;;;;;;;;;;;;26.68;23.45;98898.97;172043;28;1101;-51
2022/01/18 00:05:19;;;;;;;;;;;;;;;26.68;23.39;98905.09;170606;28;4678;-51
2022/01/18 00:05:25;;;;;;;;;;;;;;;26.71;23.10;98906.75;170925;28;1646;-51
2022/01/18 00:05:30;;;;;;;;;;;;;;;26.72;23.18;98905.78;171621;28;801;-52
2022/01/18 00:05:36;;;;;;;;;;;;;;;26.71;23.29;98901.44;172503;28;1172;-52
2022/01/18 00:05:45;;;;;;;;;;;;;;;26.73;23.24;98904.00;172395;28;1351;-51
2022/01/18 00:05:51;;;;;;;;;;;;;;;26.70;23.29;98911.19;172329;28;1173;-52
2022/01/18 00:05:56;;;;;;;;;;;;;;;26.68;23.14;98901.63;172310;28;840;-51
2022/01/18 00:06:01;;;;;;;;;;;;;;;26.69;23.40;98908.59;172139;28;1138;-51
2022/01/18 00:06:06;;;;;;;;;;;;;;;26.73;23.45;98907.47;172419;28;1200;-52
2022/01/18 00:06:11;;;;;;;;;;;;;;;26.70;23.07;98905.00;171621;28;983;-50
2022/01/18 00:06:17;;;;;;;;;;;;;;;26.67;23.13;98906.06;171707;28;1023;-51
2022/01/18 00:06:22;;;;;;;;;;;;;;;26.66;23.33;98907.00;171796;28;1181;-51
2022/01/18 00:06:27;;;;;;;;;;;;;;;26.70;23.09;98905.00;171754;28;802;-51
2022/01/18 00:06:32;;;;;;;;;;;;;;;26.68;23.46;98901.63;171682;28;1169;-52
2022/01/18 00:06:40;;;;;;;;;;;;;;;26.68;23.07;98905.09;171777;28;1229;-53
2022/01/18 00:06:49;;;;;;;;;;;;;;;26.71;23.18;98904.94;171621;28;1289;-51
2022/01/18 00:06:55;;;;;;;;;;;;;;;26.68;23.26;98904.25;171965;28;1295;-51
2022/01/18 00:07:00;;;;;;;;;;;;;;;26.68;23.46;98904.25;171258;28;1112;-52
2022/01/18 00:07:05;;;;;;;;;;;;;;;26.69;23.29;98901.50;172108;28;1176;-51
2022/01/18 00:07:10;;;;;;;;;;;;;;;26.70;23.37;98905.00;172543;28;1208;-52
2022/01/18 00:07:16;;;;;;;;;;;;;;;26.70;23.19;98907.66;172052;28;864;-52
2022/01/18 00:07:21;;;;;;;;;;;;;;;26.72;23.16;98903.13;171637;28;1275;-52
2022/01/18 00:07:26;;;;;;;;;;;;;;;26.70;23.12;98905.88;171822;28;1240;-51
2022/01/18 00:07:31;;;;;;;;;;;;;;;26.71;23.14;98909.38;172317;28;1038;-51
2022/01/18 00:07:36;;;;;;;;;;;;;;;26.74;23.37;98903.88;171702;28;1046;-51
2022/01/18 00:07:42;;;;;;;;;;;;;;;26.73;23.31;98906.63;171923;28;932;-51
2022/01/18 00:07:48;;;;;;;;;;;;;;;26.71;23.11;98904.94;171519;28;1398;-51
2022/01/18 00:07:53;;;;;;;;;;;;;;;26.74;23.35;98911.81;171775;28;1224;-51
2022/01/18 00:07:58;;;;;;;;;;;;;;;26.75;23.12;98908.22;171485;28;1055;-51
2022/01/18 00:08:04;;;;;;;;;;;;;;;26.72;23.18;98905.78;171373;28;1268;-51
2022/01/18 00:08:09;;;;;;;;;;;;;;;26.73;23.11;98904.00;171954;28;928;-51
2022/01/18 00:08:15;;;;;;;;;;;;;;;26.73;23.44;98909.28;172359;28;1458;-51
2022/01/18 00:08:20;;;;;;;;;;;;;;;26.70;23.42;98905.88;172406;28;1180;-51
2022/01/18 00:08:26;;;;;;;;;;;;;;;26.73;23.43;98912.78;172322;28;1224;-51
2022/01/18 00:08:31;;;;;;;;;;;;;;;26.74;23.13;98911.81;171123;28;1248;-52
2022/01/18 00:08:36;;;;;;;;;;;;;;;26.77;23.42;98902.84;171596;28;1106;-51
2022/01/18 00:08:42;;;;;;;;;;;;;;;26.77;23.03;98914.28;172452;28;854;-52
2022/01/18 00:08:47;;;;;;;;;;;;;;;26.75;23.43;98908.22;172378;28;1270;-53
2022/01/18 00:08:52;;;;;;;;;;;;;;;26.73;23.22;98912.78;172422;28;1243;-51
2022/01/18 00:08:57;;;;;;;;;;;;;;;26.75;23.20;98916.16;172449;28;994;-51
2022/01/18 00:09:03;;;;;;;;;;;;;;;26.77;23.16;98910.78;172029;28;1056;-51
2022/01/18 00:09:08;;;;;;;;;;;;;;;26.74;23.37;98911.81;171658;28;979;-52
2022/01/18 00:09:13;;;;;;;;;;;;;;;26.73;23.45;98910.13;171187;28;4232;-51
2022/01/18 00:09:21;;;;;;;;;;;;;;;26.70;23.43;98912.94;171892;28;1172;-51
2022/01/18 00:09:27;;;;;;;;;;;;;;;26.69;23.15;98904.16;171898;28;2011;-51
2022/01/18 00:09:37;;;;;;;;;;;;;;;26.70;23.36;98907.66;171191;28;1212;-51
2022/01/18 00:09:43;;;;;;;;;;;;;;;26.68;23.19;98910.41;171747;28;1065;-52
2022/01/18 00:09:49;;;;;;;;;;;;;;;26.67;23.17;98911.34;171006;28;803;-52
2022/01/18 00:09:54;;;;;;;;;;;;;;;26.67;23.50;98905.22;171034;28;1113;-51
2022/01/18 00:09:59;;;;;;;;;;;;;;;26.65;23.53;98915.03;170725;28;1237;-51
2022/01/18 00:10:05;;;;;;;;;;;;;;;26.63;23.53;98914.31;170600;28;1071;-52
2022/01/18 00:10:10;;;;;;;;;;;;;;;26.62;23.15;98912.56;171062;28;920;-51
2022/01/18 00:10:15;;;;;;;;;;;;;;;26.63;23.23;98912.50;170612;28;1391;-53
2022/01/18 00:10:23;;;;;;;;;;;;;;;26.65;23.21;98907.97;170956;28;1225;-51
2022/01/18 00:10:30;;;;;;;;;;;;;;;26.67;23.21;98915.78;171117;28;854;-51
2022/01/18 00:10:36;;;;;;;;;;;;;;;26.66;23.46;98906.16;170524;29;893;-52
2022/01/18 00:10:41;;;;;;;;;;;;;;;26.66;23.52;98916.75;171067;28;1315;-51
2022/01/18 00:10:48;;;;;;;;;;;;;;;26.66;23.28;98917.59;170977;28;1154;-52
2022/01/18 00:10:53;;;;;;;;;;;;;;;26.66;23.39;98911.44;171003;28;920;-52
2022/01/18 00:10:58;;;;;;;;;;;;;;;26.68;23.51;98909.56;171635;28;886;-51
2022/01/18 00:11:04;;;;;;;;;;;;;;;26.70;23.30;98910.31;171275;28;1152;-51
2022/01/18 00:11:09;;;;;;;;;;;;;;;26.69;23.29;98912.09;171869;28;929;-51
2022/01/18 00:11:17;;;;;;;;;;;;;;;26.69;23.15;98913.91;171690;28;1233;-51
2022/01/18 00:11:25;;;;;;;;;;;;;;;26.67;23.41;98913.16;171937;28;905;-50
2022/01/18 00:11:38;;;;;;;;;;;;;;;26.67;23.43;98914.00;171639;28;1181;-51
2022/01/18 00:11:48;;;;;;;;;;;;;;;26.69;23.07;98919.19;171678;28;1094;-51
2022/01/18 00:12:10;;;;;;;;;;;;;;;26.69;23.46;98916.53;172345;28;1201;-51
2022/01/18 00:13:12;;;;;;;;;;;;;;;26.63;23.44;98917.78;172269;28;947;-52
2022/01/18 00:13:39;;;;;;;;;;;;;;;26.62;23.28;98926.69;171726;28;4220;-53
2022/01/18 00:13:47;;;;;;;;;;;;;;;26.64;23.28;98921.28;172436;28;868;-52
2022/01/18 00:14:02;;;;;;;;;;;;;;;26.65;23.18;98925.63;172373;28;1152;-52
2022/01/18 00:14:21;;;;;;;;;;;;;;;26.68;23.50;98926.28;172236;28;969;-52
2022/01/18 00:14:39;;;;;;;;;;;;;;;26.65;23.48;98922.97;172038;28;1232;-51
2022/01/18 00:14:55;;;;;;;;;;;;;;;26.66;23.29;98924.69;172538;28;921;-52
2022/01/18 00:15:39;;;;;;;;;;;;;;;26.64;23.32;98927.44;172038;28;1137;-51
2022/01/18 00:16:11;;;;;;;;;;;;;;;26.63;23.50;98928.38;172321;28;1530;-52
2022/01/18 00:16:27;;;;;;;;;;;;;;;26.57;23.53;98925.25;173219;28;778;-52
2022/01/18 00:16:49;;;;;;;;;;;;;;;26.61;23.29;98929.41;173211;28;1093;-53
2022/01/18 00:17:40;;;;;;;;;;;;;;;26.60;23.43;98928.56;171480;28;4366;-51
2022/01/18 00:18:06;;;;;;;;;;;;;;;26.62;23.46;98924.03;173337;28;1196;-52
2022/01/18 00:18:07;;;;;;;;;;;;;;;26.57;23.65;98934.03;171596;28;1032;-51
2022/01/18 00:18:14;;;;;;;;;;;;;;;26.54;23.28;98938.66;172200;28;1063;-51
2022/01/18 00:18:19;;;;;;;;;;;;;;;26.56;23.37;98934.13;171794;28;841;-52
2022/01/18 00:18:24;;;;;;;;;;;;;;;26.57;23.56;98933.19;172576;28;1316;-52
2022/01/18 00:18:30;;;;;;;;;;;;;;;26.56;23.40;98932.34;171909;28;1318;-51
2022/01/18 00:18:36;;;;;;;;;;;;;;;26.58;23.40;98932.25;171672;28;1197;-52
2022/01/18 00:18:41;;;;;;;;;;;;;;;26.57;23.41;98935.84;171835;28;841;-51
2022/01/18 00:18:49;;;;;;;;;;;;;;;26.57;23.56;98933.19;171619;28;1204;-51
2022/01/18 00:18:55;;;;;;;;;;;;;;;26.57;23.35;98931.41;171803;28;1261;-51
2022/01/18 00:19:07;;;;;;;;;;;;;;;26.56;23.42;98931.50;170528;28;1610;-52
2022/01/18 00:19:13;;;;;;;;;;;;;;;26.61;23.29;98934.69;171169;28;1019;-52
2022/01/18 00:19:23;;;;;;;;;;;;;;;26.60;23.14;98928.56;170785;28;1323;-51
2022/01/18 00:19:28;;;;;;;;;;;;;;;26.63;23.58;98941.59;171976;28;1011;-51
2022/01/18 00:19:39;;;;;;;;;;;;;;;26.61;23.52;98932.03;172508;28;1141;-53
2022/01/18 00:19:53;;;;;;;;;;;;;;;26.61;23.53;98935.53;172171;28;1078;-53
2022/01/18 00:19:58;;;;;;;;;;;;;;;26.63;23.31;98935.47;172359;28;960;-53
2022/01/18 00:20:04;;;;;;;;;;;;;;;26.60;23.15;98936.47;171606;28;1237;-52
2022/01/18 00:20:16;;;;;;;;;;;;;;;26.64;23.38;98934.53;171806;28;988;-53
2022/01/18 00:20:33;;;;;;;;;;;;;;;26.64;23.58;98937.16;171879;28;1162;-52
2022/01/18 00:21:21;;;;;;;;;;;;;;;26.64;23.23;98939.81;171716;28;4229;-51
2022/01/18 00:22:14;;;;;;;;;;;;;;;26.64;23.52;98937.16;172845;28;1068;-52
2022/01/18 00:22:19;;;;;;;;;;;;;;;26.64;23.40;98934.53;173122;28;975;-53
2022/01/18 00:22:26;;;;;;;;;;;;;;;26.63;23.50;98938.13;172686;28;904;-52
2022/01/18 00:22:32;;;;;;;;;;;;;;;26.64;23.31;98937.16;172290;28;1166;-52
2022/01/18 00:22:37;;;;;;;;;;;;;;;26.64;23.57;98935.38;172481;28;877;-51
2022/01/18 00:22:42;;;;;;;;;;;;;;;26.63;23.47;98935.47;172466;28;1054;-51
2022/01/18 00:22:47;;;;;;;;;;;;;;;26.61;23.20;98937.34;172528;28;865;-51
2022/01/18 00:22:52;;;;;;;;;;;;;;;26.62;23.28;98931.09;172479;28;1036;-52
2022/01/18 00:22:58;;;;;;;;;;;;;;;26.63;23.45;98938.13;172505;28;758;-52
2022/01/18 00:23:03;;;;;;;;;;;;;;;26.63;23.47;98940.75;172105;28;1129;-51
2022/01/18 00:23:09;;;;;;;;;;;;;;;26.63;23.36;98938.13;172610;28;869;-51
2022/01/18 00:23:15;;;;;;;;;;;;;;;26.63;23.47;98938.97;172213;28;952;-51
2022/01/18 00:23:20;;;;;;;;;;;;;;;26.63;23.35;98935.47;171770;28;1067;-52
2022/01/18 00:23:25;;;;;;;;;;;;;;;26.63;23.50;98941.59;171831;28;908;-51
2022/01/18 00:23:31;;;;;;;;;;;;;;;26.66;23.28;98935.28;172451;28;1344;-51
2022/01/18 00:23:37;;;;;;;;;;;;;;;26.66;23.51;98935.28;172024;28;1004;-52
2022/01/18 00:23:42;;;;;;;;;;;;;;;26.65;23.21;98939.72;172553;28;1285;-52
2022/01/18 00:23:51;;;;;;;;;;;;;;;26.64;23.28;98940.66;172607;28;754;-52
2022/01/18 00:23:58;;;;;;;;;;;;;;;26.64;23.52;98935.38;171925;28;978;-53
2022/01/18 00:24:03;;;;;;;;;;;;;;;26.63;23.54;98933.66;171799;28;1160;-51
2022/01/18 00:24:08;;;;;;;;;;;;;;;26.63;23.47;98932.81;171798;28;810;-52
2022/01/18 00:24:14;;;;;;;;;;;;;;;26.65;23.04;98941.50;171706;28;1173;-51
2022/01/18 00:24:19;;;;;;;;;;;;;;;26.64;23.48;98934.53;171973;28;901;-52
2022/01/18 00:24:24;;;;;;;;;;;;;;;26.55;23.56;98935.09;172045;28;886;-53
2022/01/18 00:24:29;;;;;;;;;;;;;;;26.52;23.52;98940.53;171047;28;1154;-52
2022/01/18 00:24:35;;;;;;;;;;;;;;;26.49;23.38;98933.66;171200;28;1166;-52
2022/01/18 00:24:40;;;;;;;;;;;;;;;26.57;23.37;98938.47;170944;28;1410;-51
2022/01/18 00:24:46;;;;;;;;;;;;;;;26.60;23.55;98940.94;170587;28;1451;-52
2022/01/18 00:24:52;;;;;;;;;;;;;;;26.59;23.45;98933.94;170506;28;1577;-51
2022/01/18 00:24:59;;;;;;;;;;;;;;;26.61;23.43;98937.34;170435;29;838;-53
2022/01/18 00:25:05;;;;;;;;;;;;;;;26.63;23.60;98936.31;169573;29;1055;-52
2022/01/18 00:25:10;;;;;;;;;;;;;;;26.65;23.29;98938.88;169974;28;764;-51
2022/01/18 00:25:16;;;;;;;;;;;;;;;26.66;23.57;98937.91;169284;28;4322;-52
2022/01/18 00:25:21;;;;;;;;;;;;;;;26.64;23.51;98937.16;171298;28;810;-51
2022/01/18 00:25:26;;;;;;;;;;;;;;;26.62;23.27;98937.25;171225;28;1074;-51
2022/01/18 00:25:34;;;;;;;;;;;;;;;26.66;23.28;98937.91;170851;28;1535;-51
2022/01/18 00:25:42;;;;;;;;;;;;;;;26.67;23.45;98937.81;171193;28;1114;-51
2022/01/18 00:25:52;;;;;;;;;;;;;;;26.64;23.51;98937.16;170877;28;1197;-51
2022/01/18 00:25:58;;;;;;;;;;;;;;;26.65;23.39;98936.22;170570;29;677;-53
2022/01/18 00:26:04;;;;;;;;;;;;;;;26.69;23.43;98941.22;170124;28;1189;-52
2022/01/18 00:26:09;;;;;;;;;;;;;;;26.68;23.20;98941.31;170971;28;1122;-51
2022/01/18 00:26:14;;;;;;;;;;;;;;;26.67;23.49;98940.47;171063;28;1130;-52
2022/01/18 00:26:19;;;;;;;;;;;;;;;26.68;23.20;98938.66;171316;28;874;-52
2022/01/18 00:26:28;;;;;;;;;;;;;;;26.70;23.60;98942.06;171262;28;1111;-51
2022/01/18 00:26:34;;;;;;;;;;;;;;;26.70;23.49;98931.47;171079;28;1027;-52
2022/01/18 00:26:39;;;;;;;;;;;;;;;26.70;23.01;98932.34;171256;28;1292;-51
2022/01/18 00:26:44;;;;;;;;;;;;;;;26.71;23.45;98934.03;171104;28;897;-51
2022/01/18 00:26:49;;;;;;;;;;;;;;;26.71;23.42;98934.03;170662;28;1224;-52
2022/01/18 00:26:54;;;;;;;;;;;;;;;26.69;23.31;98938.56;170484;29;1268;-52
2022/01/18 00:27:00;;;;;;;;;;;;;;;26.71;23.13;98941.13;170168;28;1166;-51
2022/01/18 00:27:09;;;;;;;;;;;;;;;26.69;23.31;98940.34;169223;29;941;-52
2022/01/18 00:27:16;;;;;;;;;;;;;;;26.69;23.24;98943.00;169167;29;1150;-53
2022/01/18 00:27:21;;;;;;;;;;;;;;;26.69;23.24;98938.56;169179;29;946;-52
2022/01/18 00:27:27;;;;;;;;;;;;;;;26.70;23.38;98939.41;169182;29;1159;-51
2022/01/18 00:27:32;;;;;;;;;;;;;;;26.69;23.45;98938.56;169090;29;985;-52
2022/01/18 00:27:37;;;;;;;;;;;;;;;26.69;23.27;98940.34;169308;29;1178;-52
2022/01/18 00:27:42;;;;;;;;;;;;;;;26.68;23.20;98936.88;169236;29;795;-51
2022/01/18 00:27:47;;;;;;;;;;;;;;;26.69;23.17;98938.56;169217;29;1127;-51
2022/01/18 00:27:53;;;;;;;;;;;;;;;26.68;23.13;98936.00;169276;29;1199;-51
2022/01/18 00:27:59;;;;;;;;;;;;;;;26.69;23.30;98938.56;169074;29;1037;-52
2022/01/18 00:28:06;;;;;;;;;;;;;;;26.71;23.23;98941.13;169883;29;851;-52
2022/01/18 00:28:11;;;;;;;;;;;;;;;26.71;23.08;98938.50;170326;28;946;-51
2022/01/18 00:28:17;;;;;;;;;;;;;;;26.68;23.40;98936.00;171443;28;964;-51
2022/01/18 00:28:22;;;;;;;;;;;;;;;26.69;23.50;98935.06;172609;28;987;-52
2022/01/18 00:28:28;;;;;;;;;;;;;;;26.67;23.20;98939.63;172504;28;1043;-51
2022/01/18 00:28:33;;;;;;;;;;;;;;;26.68;23.15;98938.66;172532;28;1184;-51
2022/01/18 00:28:40;;;;;;;;;;;;;;;26.69;23.40;98937.72;172761;28;817;-53
2022/01/18 00:28:51;;;;;;;;;;;;;;;26.70;23.17;98928.81;172500;28;1109;-52
2022/01/18 00:29:03;;;;;;;;;;;;;;;26.69;23.21;98937.72;173075;28;896;-52
2022/01/18 00:29:12;;;;;;;;;;;;;;;26.67;23.18;98940.47;172902;28;906;-51
2022/01/18 00:29:21;;;;;;;;;;;;;;;26.68;23.50;98926.28;172870;28;4167;-52
2022/01/18 00:29:28;;;;;;;;;;;;;;;26.67;23.37;98939.63;171890;28;1074;-52
2022/01/18 00:29:37;;;;;;;;;;;;;;;26.67;23.45;98936.97;172521;28;1180;-51
2022/01/18 00:30:35;;;;;;;;;;;;;;;26.68;23.18;98930.72;172670;28;838;-52
2022/01/18 00:31:40;;;;;;;;;;;;;;;26.60;23.53;98928.56;171858;28;961;-51
2022/01/18 00:31:58;;;;;;;;;;;;;;;26.52;23.48;98925.53;171935;28;948;-51
2022/01/18 00:32:11;;;;;;;;;;;;;;;26.53;23.62;98929.88;172458;28;989;-51
2022/01/18 00:32:39;;;;;;;;;;;;;;;26.53;23.39;98929.00;172711;28;659;-51
2022/01/18 00:33:00;;;;;;;;;;;;;;;26.59;23.23;98921.56;172712;28;1188;-51
2022/01/18 00:33:25;;;;;;;;;;;;;;;26.59;23.46;98926.84;172138;28;4194;-52
2022/01/18 00:34:07;;;;;;;;;;;;;;;26.59;23.39;98934.78;172395;28;1415;-51
2022/01/18 00:34:07;;;;;;;;;;;;;;;26.55;23.21;98925.34;173333;28;1313;-53
2022/01/18 00:34:27;;;;;;;;;;;;;;;26.57;23.57;98925.25;172644;28;919;-52
2022/01/18 00:34:33;;;;;;;;;;;;;;;26.58;23.28;98935.75;171966;28;846;-51
2022/01/18 00:34:40;;;;;;;;;;;;;;;26.59;23.56;98936.59;172260;28;1212;-53
2022/01/18 00:34:50;;;;;;;;;;;;;;;26.60;23.33;98925.06;172380;28;794;-51
2022/01/18 00:34:56;;;;;;;;;;;;;;;26.60;23.41;98927.69;172287;28;912;-51
2022/01/18 00:35:02;;;;;;;;;;;;;;;26.58;23.52;98934.88;172314;28;1128;-51
2022/01/18 00:35:07;;;;;;;;;;;;;;;26.56;23.51;98931.50;172618;28;1049;-52
2022/01/18 00:35:12;;;;;;;;;;;;;;;26.55;23.56;98935.09;171765;28;1336;-51
2022/01/18 00:35:17;;;;;;;;;;;;;;;26.59;23.08;98931.28;171956;28;813;-50
2022/01/18 00:35:23;;;;;;;;;;;;;;;26.56;23.27;98936.78;172045;28;798;-52
2022/01/18 00:35:33;;;;;;;;;;;;;;;26.58;23.31;98934.88;171342;28;1544;-51
2022/01/18 00:35:40;;;;;;;;;;;;;;;26.57;23.50;98935.84;171446;28;1550;-51
2022/01/18 00:35:47;;;;;;;;;;;;;;;26.57;23.57;98928.75;171677;28;1275;-51
2022/01/18 00:36:01;;;;;;;;;;;;;;;26.59;23.31;98931.28;172182;28;1422;-51
2022/01/18 00:36:09;;;;;;;;;;;;;;;26.61;23.55;98935.53;172443;28;1050;-51
2022/01/18 00:36:37;;;;;;;;;;;;;;;26.64;23.44;98938.00;172486;28;1136;-53
2022/01/18 00:36:59;;;;;;;;;;;;;;;26.64;23.40;98942.47;172718;28;840;-51
2022/01/18 00:37:26;;;;;;;;;;;;;;;26.63;23.33;98940.75;172869;28;951;-51
2022/01/18 00:37:36;;;;;;;;;;;;;;;26.62;23.52;98941.69;173059;28;4376;-52
2022/01/18 00:37:51;;;;;;;;;;;;;;;26.61;23.58;98943.47;172553;28;925;-51
2022/01/18 00:37:58;;;;;;;;;;;;;;;26.59;23.40;98940.06;171758;28;853;-51
2022/01/18 00:38:14;;;;;;;;;;;;;;;26.55;23.37;98935.94;172288;28;1012;-50
2022/01/18 00:38:32;;;;;;;;;;;;;;;26.45;23.76;98945.34;172023;28;846;-51
2022/01/18 00:38:46;;;;;;;;;;;;;;;26.56;23.46;98947.38;172646;28;1211;-52
2022/01/18 00:38:51;;;;;;;;;;;;;;;26.59;23.49;98948.03;172588;28;857;-52
2022/01/18 00:38:56;;;;;;;;;;;;;;;26.59;23.23;98945.38;172447;28;998;-51
2022/01/18 00:39:01;;;;;;;;;;;;;;;26.59;23.20;98950.66;172159;28;982;-51
2022/01/18 00:39:07;;;;;;;;;;;;;;;26.57;23.57;98949.06;173097;28;860;-51
2022/01/18 00:39:12;;;;;;;;;;;;;;;26.55;23.57;98948.31;173095;28;1303;-51
2022/01/18 00:39:18;;;;;;;;;;;;;;;26.57;23.25;98951.72;173308;28;876;-51
2022/01/18 00:39:23;;;;;;;;;;;;;;;26.57;23.31;98954.34;173244;28;1085;-52
2022/01/18 00:39:28;;;;;;;;;;;;;;;26.56;23.25;98950.88;173082;28;841;-52
2022/01/18 00:39:34;;;;;;;;;;;;;;;26.55;23.29;98950.97;173243;28;1200;-52
2022/01/18 00:39:42;;;;;;;;;;;;;;;26.55;23.33;98945.66;173409;28;1044;-52
2022/01/18 00:39:47;;;;;;;;;;;;;;;26.55;23.59;98946.53;173227;28;1157;-52
2022/01/18 00:39:52;;;;;;;;;;;;;;;26.56;23.30;98955.31;173267;28;704;-52
2022/01/18 00:39:57;;;;;;;;;;;;;;;26.57;23.35;98949.06;173066;28;991;-53
2022/01/18 00:40:03;;;;;;;;;;;;;;;26.56;23.41;98952.66;172726;28;1171;-52
2022/01/18 00:40:08;;;;;;;;;;;;;;;26.57;23.54;98954.34;173074;28;1010;-52
2022/01/18 00:40:14;;;;;;;;;;;;;;;26.55;23.33;98949.16;173187;28;877;-52
2022/01/18 00:40:19;;;;;;;;;;;;;;;26.56;23.61;98950.88;173279;28;1157;-52
2022/01/18 00:40:24;;;;;;;;;;;;;;;26.56;23.57;98953.50;173288;28;963;-51
2022/01/18 00:40:29;;;;;;;;;;;;;;;26.56;23.28;98952.66;173249;28;1015;-51
2022/01/18 00:40:34;;;;;;;;;;;;;;;26.57;23.53;98951.72;172552;28;1527;-52
2022/01/18 00:40:40;;;;;;;;;;;;;;;26.55;23.50;98950.97;172632;28;1318;-52
2022/01/18 00:40:45;;;;;;;;;;;;;;;26.55;23.55;98951.81;173254;28;1180;-51
2022/01/18 00:40:50;;;;;;;;;;;;;;;26.54;23.25;98958.00;173276;28;852;-52
2022/01/18 00:40:55;;;;;;;;;;;;;;;26.55;23.55;98954.47;173313;28;1165;-52
2022/01/18 00:41:01;;;;;;;;;;;;;;;26.57;23.54;98955.22;172207;28;974;-51
2022/01/18 00:41:06;;;;;;;;;;;;;;;26.59;23.30;98955.09;172529;28;1006;-52
2022/01/18 00:41:11;;;;;;;;;;;;;;;26.59;23.22;98953.31;173382;28;589;-51
2022/01/18 00:41:18;;;;;;;;;;;;;;;26.59;23.41;98952.47;172843;28;4178;-51
2022/01/18 00:41:24;;;;;;;;;;;;;;;26.60;23.56;98951.50;172675;28;888;-51
2022/01/18 00:41:29;;;;;;;;;;;;;;;26.60;23.35;98952.34;172775;28;1046;-51
2022/01/18 00:41:34;;;;;;;;;;;;;;;26.61;23.57;98953.22;173343;28;805;-51
2022/01/18 00:41:40;;;;;;;;;;;;;;;26.59;23.47;98957.75;172644;28;687;-52
2022/01/18 00:41:45;;;;;;;;;;;;;;;26.59;23.56;98952.47;172592;28;1134;-52
2022/01/18 00:41:50;;;;;;;;;;;;;;;26.58;23.47;98953.41;172654;28;798;-52
2022/01/18 00:41:55;;;;;;;;;;;;;;;26.57;23.57;98955.22;172468;28;1094;-52
2022/01/18 00:42:01;;;;;;;;;;;;;;;26.56;23.54;98953.50;172260;28;1199;-51
2022/01/18 00:42:06;;;;;;;;;;;;;;;26.58;23.31;98954.25;172449;28;953;-52
2022/01/18 00:42:11;;;;;;;;;;;;;;;26.60;23.40;98954.16;172585;28;819;-53
2022/01/18 00:42:17;;;;;;;;;;;;;;;26.62;23.38;98957.56;172489;28;892;-51
2022/01/18 00:42:22;;;;;;;;;;;;;;;26.63;23.38;98951.34;172732;28;877;-52
2022/01/18 00:42:27;;;;;;;;;;;;;;;26.60;23.27;98959.44;173188;28;794;-52
2022/01/18 00:42:32;;;;;;;;;;;;;;;26.59;23.08;98960.41;173305;28;1049;-51
2022/01/18 00:42:38;;;;;;;;;;;;;;;26.59;23.34;98955.09;173336;28;789;-52
2022/01/18 00:42:43;;;;;;;;;;;;;;;26.60;23.52;98954.16;173102;28;1062;-51
2022/01/18 00:42:48;;;;;;;;;;;;;;;26.60;23.40;98962.94;173324;28;858;-51
2022/01/18 00:42:53;;;;;;;;;;;;;;;26.61;23.40;98955.84;171945;28;976;-51
2022/01/18 00:42:58;;;;;;;;;;;;;;;26.62;23.32;98962.84;171691;28;814;-51
2022/01/18 00:43:03;;;;;;;;;;;;;;;26.63;23.20;98959.28;171648;28;1137;-52
2022/01/18 00:43:09;;;;;;;;;;;;;;;26.62;23.52;98954.91;171737;28;909;-52
2022/01/18 00:43:14;;;;;;;;;;;;;;;26.63;23.31;98959.28;171851;28;877;-52
2022/01/18 00:43:19;;;;;;;;;;;;;;;26.65;23.50;98952.09;171939;28;1027;-53
2022/01/18 00:43:25;;;;;;;;;;;;;;;26.64;23.42;98956.53;170543;29;1142;-52
2022/01/18 00:43:30;;;;;;;;;;;;;;;26.61;23.51;98958.50;171327;28;1452;-52
2022/01/18 00:43:35;;;;;;;;;;;;;;;26.63;23.41;98957.50;172081;28;876;-52
2022/01/18 00:43:40;;;;;;;;;;;;;;;26.63;23.45;98960.13;171959;28;1026;-53
2022/01/18 00:43:45;;;;;;;;;;;;;;;26.63;23.51;98965.44;171817;28;1012;-52
2022/01/18 00:43:51;;;;;;;;;;;;;;;26.61;23.41;98958.50;170549;29;1336;-53
2022/01/18 00:43:56;;;;;;;;;;;;;;;26.63;23.60;98960.13;171138;28;885;-52
2022/01/18 00:44:01;;;;;;;;;;;;;;;26.66;23.32;98961.72;172247;28;1212;-50
2022/01/18 00:44:07;;;;;;;;;;;;;;;26.66;23.17;98962.56;172577;28;1216;-52
2022/01/18 00:44:12;;;;;;;;;;;;;;;26.65;23.27;98960.03;172534;28;955;-52